createdAt,value
2022-11-05T00:03:56.332Z,100632.00
2022-11-05T00:09:16.869Z,100647.78
2022-11-05T00:14:36.995Z,100642.16
2022-11-05T00:19:38.632Z,100654.31
2022-11-05T00:24:58.585Z,100660.16
2022-11-05T00:30:00.242Z,100663.59
2022-11-05T00:35:01.896Z,100652.88
2022-11-05T00:40:05.399Z,100661.56
2022-11-05T00:45:07.938Z,100679.84
2022-11-05T00:50:10.768Z,100674.31
2022-11-05T00:55:12.593Z,100683.06
2022-11-05T01:00:15.184Z,100685.50
2022-11-05T01:05:16.999Z,100681.94
2022-11-05T01:10:19.344Z,100694.88
2022-11-05T01:15:22.082Z,100708.09
2022-11-05T01:20:24.025Z,100714.09
2022-11-05T01:25:26.613Z,100715.78
2022-11-05T01:30:28.368Z,100705.75
2022-11-05T01:35:30.065Z,100719.81
2022-11-05T01:40:31.743Z,100734.59
2022-11-05T01:45:34.761Z,100720.38
2022-11-05T01:50:49.320Z,100718.47
2022-11-05T01:56:04.923Z,100710.34
2022-11-05T02:01:06.718Z,100744.41
2022-11-05T02:06:09.490Z,100745.50
2022-11-05T02:11:17.204Z,100748.13
2022-11-05T02:16:51.209Z,100767.09
2022-11-05T02:22:52.284Z,100770.41
2022-11-05T02:28:43.870Z,100738.31
2022-11-05T02:34:36.937Z,100758.41
2022-11-05T02:40:28.458Z,100774.56
2022-11-05T02:46:12.133Z,100769.53
2022-11-05T02:51:38.927Z,100753.91
2022-11-05T02:56:48.597Z,100770.63
2022-11-05T03:01:52.575Z,100791.25
2022-11-05T03:07:22.198Z,100803.22
2022-11-05T03:13:22.056Z,100795.19
2022-11-05T03:18:42.848Z,100823.16
2022-11-05T03:24:10.440Z,100807.28
2022-11-05T03:29:26.278Z,100825.75
2022-11-05T03:34:43.344Z,100808.28
2022-11-05T03:39:56.371Z,100832.78
2022-11-05T03:45:05.448Z,100833.53
2022-11-05T03:50:18.873Z,100833.22
2022-11-05T03:55:35.114Z,100847.31
2022-11-05T04:00:37.829Z,100838.94
2022-11-05T04:05:40.116Z,100863.25
2022-11-05T04:11:00.810Z,100860.47
2022-11-05T04:16:21.231Z,100873.31
2022-11-05T04:21:41.289Z,100851.47
2022-11-05T04:26:44.242Z,100884.19
2022-11-05T04:31:45.893Z,100879.28
2022-11-05T04:36:52.457Z,100887.44
2022-11-05T04:41:54.181Z,100882.78
2022-11-05T04:46:55.844Z,100890.41
2022-11-05T04:51:57.507Z,100900.09
2022-11-05T04:56:59.163Z,100908.00
2022-11-05T05:02:00.881Z,100897.22
2022-11-05T05:07:02.569Z,100907.25
2022-11-05T05:12:04.392Z,100908.00
2022-11-05T05:17:06.114Z,100918.09
2022-11-05T05:22:07.752Z,100932.59
2022-11-05T05:27:09.588Z,100931.50
2022-11-05T05:32:11.286Z,100918.66
2022-11-05T05:37:13.041Z,100925.63
2022-11-05T05:42:15.465Z,100949.22
2022-11-05T05:47:17.140Z,100944.38
2022-11-05T05:52:19.141Z,100956.56
2022-11-05T05:57:20.839Z,100964.25
2022-11-05T06:02:23.004Z,100962.41
2022-11-05T06:07:24.911Z,100978.81
2022-11-05T06:12:29.731Z,100983.59
2022-11-05T06:17:33.223Z,100998.13
2022-11-05T06:22:34.880Z,101001.81
2022-11-05T06:27:37.438Z,101002.03
2022-11-05T06:32:39.088Z,101004.31
2022-11-05T06:37:40.717Z,101030.47
2022-11-05T06:42:42.389Z,101036.38
2022-11-05T06:47:44.027Z,101043.31
2022-11-05T06:52:52.147Z,101038.88
2022-11-05T06:57:54.107Z,101047.66
2022-11-05T07:02:56.821Z,101043.31
2022-11-05T07:07:58.681Z,101072.53
2022-11-05T07:13:05.042Z,101062.94
2022-11-05T07:18:09.356Z,101070.94
2022-11-05T07:23:14.656Z,101090.03
2022-11-05T07:28:19.454Z,101102.63
2022-11-05T07:33:21.139Z,101099.03
2022-11-05T07:38:23.005Z,101097.97
2022-11-05T07:43:24.681Z,101095.50
2022-11-05T07:48:26.448Z,101096.00
2022-11-05T07:53:28.188Z,101102.97
2022-11-05T07:58:29.857Z,101093.06
2022-11-05T08:03:31.763Z,101106.16
2022-11-05T08:08:33.819Z,101099.84
2022-11-05T08:13:37.191Z,101113.47
2022-11-05T08:18:41.388Z,101105.34
2022-11-05T08:23:43.718Z,101125.78
2022-11-05T08:28:45.593Z,101098.78
2022-11-05T08:33:47.271Z,101122.75
2022-11-05T08:38:48.971Z,101129.91
2022-11-05T08:43:52.082Z,101133.81
2022-11-05T08:48:54.051Z,101133.53
2022-11-05T08:53:56.013Z,101123.66
2022-11-05T08:58:57.674Z,101110.88
2022-11-05T09:03:59.737Z,101110.09
2022-11-05T09:09:02.612Z,101112.16
2022-11-05T09:14:04.258Z,101114.38
2022-11-05T09:19:05.972Z,101108.56
2022-11-05T09:24:08.267Z,101127.09
2022-11-05T09:29:14.250Z,101128.44
2022-11-05T09:34:16.435Z,101130.25
2022-11-05T09:39:18.123Z,101133.78
2022-11-05T09:44:37.791Z,101124.13
2022-11-05T09:49:54.636Z,101152.81
2022-11-05T09:54:57.838Z,101156.72
2022-11-05T10:00:06.426Z,101155.16
2022-11-05T10:05:13.534Z,101170.41
2022-11-05T10:10:39.411Z,101168.25
2022-11-05T10:16:12.294Z,101166.75
2022-11-05T10:21:37.672Z,101174.03
2022-11-05T10:26:43.553Z,101169.50
2022-11-05T10:31:45.269Z,101160.47
2022-11-05T10:36:47.104Z,101162.03
2022-11-05T10:42:15.468Z,101168.72
2022-11-05T10:47:45.160Z,101170.28
2022-11-05T10:53:00.478Z,101193.75
2022-11-05T10:58:32.597Z,101184.34
2022-11-05T11:03:52.927Z,101189.75
2022-11-05T11:09:00.620Z,101182.88
2022-11-05T11:14:22.174Z,101182.75
2022-11-05T11:19:33.764Z,101188.81
2022-11-05T11:24:45.530Z,101171.31
2022-11-05T11:30:00.492Z,101173.56
2022-11-05T11:35:04.402Z,101171.44
2022-11-05T11:40:20.571Z,101169.81
2022-11-05T11:45:38.797Z,101196.59
2022-11-05T11:50:45.846Z,101192.34
2022-11-05T11:56:18.121Z,101196.59
2022-11-05T12:02:10.493Z,101192.72
2022-11-05T12:07:57.945Z,101203.06
2022-11-05T12:13:21.299Z,101208.66
2022-11-05T12:18:57.160Z,101202.72
2022-11-05T12:24:39.129Z,101193.34
2022-11-05T12:30:04.883Z,101197.88
2022-11-05T12:35:44.166Z,101205.22
2022-11-05T12:41:16.170Z,101190.91
2022-11-05T12:46:35.059Z,101216.66
2022-11-05T12:51:59.783Z,101216.69
2022-11-05T12:57:04.284Z,101201.47
2022-11-05T13:03:14.072Z,101218.63
2022-11-05T13:08:53.183Z,101208.34
2022-11-05T13:14:21.510Z,101208.31
2022-11-05T13:19:57.183Z,101212.06
2022-11-05T13:25:21.337Z,101210.78
2022-11-05T13:30:37.209Z,101216.25
2022-11-05T13:36:16.699Z,101197.09
2022-11-05T13:42:33.705Z,101220.78
2022-11-05T13:48:22.371Z,101238.56
2022-11-05T13:54:20.303Z,101237.34
2022-11-05T14:00:16.923Z,101229.19
2022-11-05T14:05:36.542Z,101225.81
2022-11-05T14:10:45.832Z,101246.63
2022-11-05T14:16:25.958Z,101251.84
2022-11-05T14:21:27.599Z,101254.50
2022-11-05T14:26:33.123Z,101241.44
2022-11-05T14:32:07.935Z,101257.66
2022-11-05T14:37:11.307Z,101252.00
2022-11-05T14:42:27.464Z,101255.97
2022-11-05T14:47:50.763Z,101259.59
2022-11-05T14:52:57.249Z,101260.94
2022-11-05T14:57:58.778Z,101269.59
2022-11-05T15:03:24.956Z,101260.41
2022-11-05T15:09:07.110Z,101261.69
2022-11-05T15:14:28.633Z,101274.56
2022-11-05T15:19:36.896Z,101279.56
2022-11-05T15:24:42.783Z,101276.56
2022-11-05T15:29:44.492Z,101279.66
2022-11-05T15:34:55.596Z,101300.25
2022-11-05T15:39:57.311Z,101299.84
2022-11-05T15:45:00.280Z,101314.34
2022-11-05T15:50:15.931Z,101308.94
2022-11-05T15:55:25.149Z,101295.28
2022-11-05T16:00:33.062Z,101307.31
2022-11-05T16:05:43.827Z,101307.16
2022-11-05T16:10:57.451Z,101314.81
2022-11-05T16:16:33.325Z,101313.72
2022-11-05T16:21:54.658Z,101316.72
2022-11-05T16:27:03.071Z,101314.78
2022-11-05T16:32:25.431Z,101317.31
2022-11-05T16:37:40.927Z,101309.94
2022-11-05T16:42:43.499Z,101325.03
2022-11-05T16:47:49.906Z,101321.09
2022-11-05T16:52:52.778Z,101328.59
2022-11-05T16:57:55.739Z,101339.31
2022-11-05T17:02:57.518Z,101356.72
2022-11-05T17:08:01.130Z,101366.84
2022-11-05T17:13:02.928Z,101372.72
2022-11-05T17:18:05.790Z,101383.53
2022-11-05T17:23:15.209Z,101382.53
2022-11-05T17:28:19.140Z,101395.25
2022-11-05T17:33:23.443Z,101406.16
2022-11-05T17:38:26.968Z,101403.25
2022-11-05T17:43:28.657Z,101396.63
2022-11-05T17:48:30.488Z,101396.97
2022-11-05T17:53:32.136Z,101411.06
2022-11-05T17:58:33.946Z,101413.56
2022-11-05T18:03:35.639Z,101403.84
2022-11-05T18:08:37.291Z,101409.03
2022-11-05T18:13:38.999Z,101421.03
2022-11-05T18:18:40.772Z,101404.34
2022-11-05T18:23:42.802Z,101426.28
2022-11-05T18:28:45.009Z,101413.97
2022-11-05T18:33:49.733Z,101415.03
2022-11-05T18:38:51.896Z,101415.75
2022-11-05T18:43:57.542Z,101394.25
2022-11-05T18:49:00.384Z,101415.44
2022-11-05T18:54:02.098Z,101399.25
2022-11-05T18:59:34.541Z,101420.16
2022-11-05T19:04:26.256Z,101432.44
2022-11-05T19:09:27.960Z,101415.13
2022-11-05T19:14:30.218Z,101412.22
2022-11-05T19:19:32.123Z,101415.44
2022-11-05T19:24:33.911Z,101415.94
2022-11-05T19:29:35.617Z,101419.50
2022-11-05T19:34:37.469Z,101434.31
2022-11-05T19:39:40.431Z,101426.72
2022-11-05T19:44:43.061Z,101434.13
2022-11-05T19:49:44.694Z,101442.63
2022-11-05T19:54:46.520Z,101426.16
2022-11-05T19:59:48.245Z,101429.19
2022-11-05T20:04:50.663Z,101437.50
2022-11-05T20:09:52.335Z,101436.78
2022-11-05T20:14:56.552Z,101449.25
2022-11-05T20:19:59.280Z,101443.19
2022-11-05T20:25:02.552Z,101439.03
2022-11-05T20:30:06.520Z,101446.41
2022-11-05T20:35:09.247Z,101463.88
2022-11-05T20:40:14.012Z,101479.75
2022-11-05T20:45:15.942Z,101474.84
2022-11-05T20:50:18.222Z,101462.25
2022-11-05T20:55:19.938Z,101453.63
2022-11-05T21:00:21.837Z,101476.91
2022-11-05T21:05:23.491Z,101481.00
2022-11-05T21:10:25.587Z,101472.09
2022-11-05T21:15:27.231Z,101472.78
2022-11-05T21:20:29.198Z,101488.63
2022-11-05T21:25:30.948Z,101500.75
2022-11-05T21:30:36.076Z,101483.53
2022-11-05T21:35:45.300Z,101458.34
2022-11-05T21:40:48.170Z,101479.88
2022-11-05T21:45:49.879Z,101476.56
2022-11-05T21:51:11.343Z,101447.13
2022-11-05T21:56:43.836Z,101481.94
2022-11-05T22:01:45.610Z,101466.88
2022-11-05T22:06:47.420Z,101471.84
2022-11-05T22:11:49.112Z,101463.47
2022-11-05T22:16:58.870Z,101474.56
2022-11-05T22:22:01.875Z,101464.66
2022-11-05T22:27:17.750Z,101471.41
2022-11-05T22:32:19.648Z,101465.25
2022-11-05T22:37:26.010Z,101462.13
2022-11-05T22:42:27.975Z,101469.00
2022-11-05T22:47:29.713Z,101463.59
2022-11-05T22:52:32.652Z,101456.66
2022-11-05T22:57:34.524Z,101476.03
2022-11-05T23:02:36.343Z,101441.50
2022-11-05T23:07:57.438Z,101475.59
2022-11-05T23:12:59.054Z,101457.94
2022-11-05T23:18:19.752Z,101462.91
2022-11-05T23:23:39.803Z,101447.34
2022-11-05T23:28:41.475Z,101463.16
2022-11-05T23:33:43.157Z,101466.03
2022-11-05T23:38:44.946Z,101424.13
2022-11-05T23:44:05.453Z,101447.88
2022-11-05T23:49:07.152Z,101442.84
2022-11-05T23:54:08.850Z,101433.06
2022-11-05T23:59:10.555Z,101441.50
